sensor_id;sensor_type;location;lat;lon;timestamp;temperature;humidity
51615;DHT22;37695;52.960;6.188;2023-04-23T00:01:45;7.70;99.90
51615;DHT22;37695;52.960;6.188;2023-04-23T00:04:12;7.70;99.90
51615;DHT22;37695;52.960;6.188;2023-04-23T00:06:41;7.70;99.90
51615;DHT22;37695;52.960;6.188;2023-04-23T00:09:07;7.70;99.90
51615;DHT22;37695;52.960;6.188;2023-04-23T00:11:34;7.70;99.90
51615;DHT22;37695;52.960;6.188;2023-04-23T00:14:00;7.70;99.90
51615;DHT22;37695;52.960;6.188;2023-04-23T00:16:26;7.70;99.90
51615;DHT22;37695;52.960;6.188;2023-04-23T00:18:51;7.70;99.90
51615;DHT22;37695;52.960;6.188;2023-04-23T00:21:17;7.70;99.90
51615;DHT22;37695;52.960;6.188;2023-04-23T00:23:42;7.70;99.90
51615;DHT22;37695;52.960;6.188;2023-04-23T00:26:08;7.70;99.90
51615;DHT22;37695;52.960;6.188;2023-04-23T00:28:33;7.70;99.90
51615;DHT22;37695;52.960;6.188;2023-04-23T00:30:59;7.70;99.90
51615;DHT22;37695;52.960;6.188;2023-04-23T00:33:24;7.70;99.90
51615;DHT22;37695;52.960;6.188;2023-04-23T00:35:50;7.80;99.90
51615;DHT22;37695;52.960;6.188;2023-04-23T00:38:16;7.80;99.90
51615;DHT22;37695;52.960;6.188;2023-04-23T00:40:41;7.80;99.90
51615;DHT22;37695;52.960;6.188;2023-04-23T00:43:07;7.70;99.90
51615;DHT22;37695;52.960;6.188;2023-04-23T00:45:34;7.70;99.90
51615;DHT22;37695;52.960;6.188;2023-04-23T00:48:00;7.70;99.90
51615;DHT22;37695;52.960;6.188;2023-04-23T00:50:26;7.60;99.90
51615;DHT22;37695;52.960;6.188;2023-04-23T00:52:52;7.50;99.90
51615;DHT22;37695;52.960;6.188;2023-04-23T00:55:17;7.50;99.90
51615;DHT22;37695;52.960;6.188;2023-04-23T00:57:45;7.40;99.90
51615;DHT22;37695;52.960;6.188;2023-04-23T01:00:11;7.40;99.90
51615;DHT22;37695;52.960;6.188;2023-04-23T01:02:38;7.40;99.90
51615;DHT22;37695;52.960;6.188;2023-04-23T01:05:08;7.40;99.90
51615;DHT22;37695;52.960;6.188;2023-04-23T01:07:34;7.40;99.90
51615;DHT22;37695;52.960;6.188;2023-04-23T01:10:02;7.50;99.90
51615;DHT22;37695;52.960;6.188;2023-04-23T01:12:27;7.50;99.90
51615;DHT22;37695;52.960;6.188;2023-04-23T01:14:53;7.60;99.90
51615;DHT22;37695;52.960;6.188;2023-04-23T01:17:19;7.60;99.90
51615;DHT22;37695;52.960;6.188;2023-04-23T01:19:45;7.70;99.90
51615;DHT22;37695;52.960;6.188;2023-04-23T01:22:12;7.70;99.90
51615;DHT22;37695;52.960;6.188;2023-04-23T01:24:38;7.70;99.90
51615;DHT22;37695;52.960;6.188;2023-04-23T01:27:04;7.80;99.90
51615;DHT22;37695;52.960;6.188;2023-04-23T01:29:31;7.80;99.90
51615;DHT22;37695;52.960;6.188;2023-04-23T01:31:58;7.80;99.90
51615;DHT22;37695;52.960;6.188;2023-04-23T01:34:23;7.80;99.90
51615;DHT22;37695;52.960;6.188;2023-04-23T01:36:50;7.70;99.90
51615;DHT22;37695;52.960;6.188;2023-04-23T01:39:16;7.70;99.90
51615;DHT22;37695;52.960;6.188;2023-04-23T01:41:42;7.70;99.90
51615;DHT22;37695;52.960;6.188;2023-04-23T01:44:08;7.70;99.90
51615;DHT22;37695;52.960;6.188;2023-04-23T01:46:33;7.80;99.90
51615;DHT22;37695;52.960;6.188;2023-04-23T01:48:59;7.80;99.90
51615;DHT22;37695;52.960;6.188;2023-04-23T01:51:25;7.90;99.90
51615;DHT22;37695;52.960;6.188;2023-04-23T01:53:51;7.90;99.90
51615;DHT22;37695;52.960;6.188;2023-04-23T01:56:19;8.00;99.90
51615;DHT22;37695;52.960;6.188;2023-04-23T01:58:47;8.00;99.90
51615;DHT22;37695;52.960;6.188;2023-04-23T02:01:12;8.10;99.90
51615;DHT22;37695;52.960;6.188;2023-04-23T02:03:38;8.10;99.90
51615;DHT22;37695;52.960;6.188;2023-04-23T02:06:04;8.20;99.90
51615;DHT22;37695;52.960;6.188;2023-04-23T02:08:30;8.20;99.90
51615;DHT22;37695;52.960;6.188;2023-04-23T02:10:55;8.20;99.90
51615;DHT22;37695;52.960;6.188;2023-04-23T02:13:21;8.20;99.90
51615;DHT22;37695;52.960;6.188;2023-04-23T02:15:47;7.80;99.90
51615;DHT22;37695;52.960;6.188;2023-04-23T02:18:12;8.30;99.90
51615;DHT22;37695;52.960;6.188;2023-04-23T02:20:38;8.30;99.90
51615;DHT22;37695;52.960;6.188;2023-04-23T02:23:08;8.30;99.90
51615;DHT22;37695;52.960;6.188;2023-04-23T02:25:35;8.30;99.90
51615;DHT22;37695;52.960;6.188;2023-04-23T02:28:03;8.40;99.90
51615;DHT22;37695;52.960;6.188;2023-04-23T02:30:32;8.40;99.90
51615;DHT22;37695;52.960;6.188;2023-04-23T02:32:58;8.30;99.90
51615;DHT22;37695;52.960;6.188;2023-04-23T02:35:23;8.30;99.90
51615;DHT22;37695;52.960;6.188;2023-04-23T02:37:50;8.40;99.90
51615;DHT22;37695;52.960;6.188;2023-04-23T02:40:15;8.30;99.90
51615;DHT22;37695;52.960;6.188;2023-04-23T02:42:41;8.30;99.90
51615;DHT22;37695;52.960;6.188;2023-04-23T02:45:07;8.30;99.90
51615;DHT22;37695;52.960;6.188;2023-04-23T02:47:32;8.30;99.90
51615;DHT22;37695;52.960;6.188;2023-04-23T02:49:58;8.30;99.90
51615;DHT22;37695;52.960;6.188;2023-04-23T02:52:27;8.40;99.90
51615;DHT22;37695;52.960;6.188;2023-04-23T02:54:52;8.30;99.90
51615;DHT22;37695;52.960;6.188;2023-04-23T02:57:18;8.30;99.90
51615;DHT22;37695;52.960;6.188;2023-04-23T02:59:44;8.30;99.90
51615;DHT22;37695;52.960;6.188;2023-04-23T03:02:09;8.30;99.90
51615;DHT22;37695;52.960;6.188;2023-04-23T03:04:35;8.30;99.90
51615;DHT22;37695;52.960;6.188;2023-04-23T03:07:00;8.30;99.90
51615;DHT22;37695;52.960;6.188;2023-04-23T03:09:26;8.30;99.90
51615;DHT22;37695;52.960;6.188;2023-04-23T03:11:51;8.40;99.90
51615;DHT22;37695;52.960;6.188;2023-04-23T03:14:17;8.30;99.90
51615;DHT22;37695;52.960;6.188;2023-04-23T03:16:43;8.30;99.90
51615;DHT22;37695;52.960;6.188;2023-04-23T03:19:08;8.30;99.90
51615;DHT22;37695;52.960;6.188;2023-04-23T03:21:34;8.30;99.90
51615;DHT22;37695;52.960;6.188;2023-04-23T03:23:59;8.30;99.90
51615;DHT22;37695;52.960;6.188;2023-04-23T03:26:25;8.30;99.90
51615;DHT22;37695;52.960;6.188;2023-04-23T03:28:51;8.30;99.90
51615;DHT22;37695;52.960;6.188;2023-04-23T03:31:16;8.30;99.90
51615;DHT22;37695;52.960;6.188;2023-04-23T03:33:42;8.30;99.90
51615;DHT22;37695;52.960;6.188;2023-04-23T03:36:07;8.30;99.90
51615;DHT22;37695;52.960;6.188;2023-04-23T03:38:33;8.30;99.90
51615;DHT22;37695;52.960;6.188;2023-04-23T03:40:58;8.40;99.90
51615;DHT22;37695;52.960;6.188;2023-04-23T03:43:24;8.30;99.90
51615;DHT22;37695;52.960;6.188;2023-04-23T03:45:50;8.30;99.90
51615;DHT22;37695;52.960;6.188;2023-04-23T03:48:15;8.30;99.90
51615;DHT22;37695;52.960;6.188;2023-04-23T03:50:41;8.30;99.90
51615;DHT22;37695;52.960;6.188;2023-04-23T03:53:06;8.30;99.90
51615;DHT22;37695;52.960;6.188;2023-04-23T03:55:34;8.30;99.90
51615;DHT22;37695;52.960;6.188;2023-04-23T03:57:59;8.30;99.90
51615;DHT22;37695;52.960;6.188;2023-04-23T04:00:26;8.30;99.90
51615;DHT22;37695;52.960;6.188;2023-04-23T04:02:51;8.20;99.90
51615;DHT22;37695;52.960;6.188;2023-04-23T04:05:17;8.20;99.90
51615;DHT22;37695;52.960;6.188;2023-04-23T04:07:42;8.30;99.90
51615;DHT22;37695;52.960;6.188;2023-04-23T04:10:08;8.30;99.90
51615;DHT22;37695;52.960;6.188;2023-04-23T04:12:34;8.20;99.90
51615;DHT22;37695;52.960;6.188;2023-04-23T04:15:01;8.20;99.90
51615;DHT22;37695;52.960;6.188;2023-04-23T04:17:27;8.20;99.90
51615;DHT22;37695;52.960;6.188;2023-04-23T04:19:53;8.20;99.90
51615;DHT22;37695;52.960;6.188;2023-04-23T04:22:18;8.20;99.90
51615;DHT22;37695;52.960;6.188;2023-04-23T04:24:44;8.20;99.90
51615;DHT22;37695;52.960;6.188;2023-04-23T04:27:11;8.20;99.90
51615;DHT22;37695;52.960;6.188;2023-04-23T04:29:37;8.20;99.90
51615;DHT22;37695;52.960;6.188;2023-04-23T04:32:06;8.20;99.90
51615;DHT22;37695;52.960;6.188;2023-04-23T04:34:31;8.10;99.90
51615;DHT22;37695;52.960;6.188;2023-04-23T04:36:57;8.10;99.90
51615;DHT22;37695;52.960;6.188;2023-04-23T04:39:22;8.10;99.90
51615;DHT22;37695;52.960;6.188;2023-04-23T04:41:48;8.10;99.90
51615;DHT22;37695;52.960;6.188;2023-04-23T04:44:14;8.10;99.90
51615;DHT22;37695;52.960;6.188;2023-04-23T04:46:40;8.10;99.90
51615;DHT22;37695;52.960;6.188;2023-04-23T04:49:07;8.10;99.90
51615;DHT22;37695;52.960;6.188;2023-04-23T04:51:35;8.10;99.90
51615;DHT22;37695;52.960;6.188;2023-04-23T04:54:01;8.10;99.90
51615;DHT22;37695;52.960;6.188;2023-04-23T04:56:27;8.20;99.90
51615;DHT22;37695;52.960;6.188;2023-04-23T04:58:52;8.20;99.90
51615;DHT22;37695;52.960;6.188;2023-04-23T05:01:19;8.20;99.90
51615;DHT22;37695;52.960;6.188;2023-04-23T05:03:45;8.10;99.90
51615;DHT22;37695;52.960;6.188;2023-04-23T05:06:11;8.10;99.90
51615;DHT22;37695;52.960;6.188;2023-04-23T05:08:36;8.20;99.90
51615;DHT22;37695;52.960;6.188;2023-04-23T05:11:02;8.20;99.90
51615;DHT22;37695;52.960;6.188;2023-04-23T05:13:28;8.20;99.90
51615;DHT22;37695;52.960;6.188;2023-04-23T05:15:54;8.20;99.90
51615;DHT22;37695;52.960;6.188;2023-04-23T05:18:19;8.20;99.90
51615;DHT22;37695;52.960;6.188;2023-04-23T05:20:45;8.20;99.90
51615;DHT22;37695;52.960;6.188;2023-04-23T05:23:11;8.20;99.90
51615;DHT22;37695;52.960;6.188;2023-04-23T05:25:36;8.30;99.90
51615;DHT22;37695;52.960;6.188;2023-04-23T05:28:02;8.30;99.90
51615;DHT22;37695;52.960;6.188;2023-04-23T05:30:28;8.40;99.90
51615;DHT22;37695;52.960;6.188;2023-04-23T05:32:53;8.50;99.90
51615;DHT22;37695;52.960;6.188;2023-04-23T05:35:19;8.60;99.90
51615;DHT22;37695;52.960;6.188;2023-04-23T05:37:44;8.60;99.90
51615;DHT22;37695;52.960;6.188;2023-04-23T05:40:10;8.70;99.90
51615;DHT22;37695;52.960;6.188;2023-04-23T05:42:36;8.80;99.90
51615;DHT22;37695;52.960;6.188;2023-04-23T05:45:02;8.80;99.90
51615;DHT22;37695;52.960;6.188;2023-04-23T05:47:29;8.90;99.90
51615;DHT22;37695;52.960;6.188;2023-04-23T05:49:54;9.00;99.90
51615;DHT22;37695;52.960;6.188;2023-04-23T05:52:23;9.10;99.90
51615;DHT22;37695;52.960;6.188;2023-04-23T05:54:49;9.10;99.90
51615;DHT22;37695;52.960;6.188;2023-04-23T05:57:15;9.10;99.90
51615;DHT22;37695;52.960;6.188;2023-04-23T05:59:40;9.10;99.90
51615;DHT22;37695;52.960;6.188;2023-04-23T06:02:07;9.10;99.90
51615;DHT22;37695;52.960;6.188;2023-04-23T06:04:33;9.20;99.90
51615;DHT22;37695;52.960;6.188;2023-04-23T06:06:59;9.20;99.90
51615;DHT22;37695;52.960;6.188;2023-04-23T06:09:24;9.30;99.90
51615;DHT22;37695;52.960;6.188;2023-04-23T06:11:51;9.40;99.90
51615;DHT22;37695;52.960;6.188;2023-04-23T06:14:17;9.40;99.90
51615;DHT22;37695;52.960;6.188;2023-04-23T06:16:42;9.50;99.90
51615;DHT22;37695;52.960;6.188;2023-04-23T06:19:08;9.40;99.90
51615;DHT22;37695;52.960;6.188;2023-04-23T06:21:33;9.40;99.90
51615;DHT22;37695;52.960;6.188;2023-04-23T06:23:59;9.50;99.90
51615;DHT22;37695;52.960;6.188;2023-04-23T06:26:25;9.50;99.90
51615;DHT22;37695;52.960;6.188;2023-04-23T06:28:50;9.70;99.90
51615;DHT22;37695;52.960;6.188;2023-04-23T06:31:16;9.90;99.90
51615;DHT22;37695;52.960;6.188;2023-04-23T06:33:41;10.00;99.90
51615;DHT22;37695;52.960;6.188;2023-04-23T06:36:07;10.00;99.90
51615;DHT22;37695;52.960;6.188;2023-04-23T06:38:36;10.20;99.90
51615;DHT22;37695;52.960;6.188;2023-04-23T06:41:03;10.20;99.90
51615;DHT22;37695;52.960;6.188;2023-04-23T06:43:29;10.30;99.90
51615;DHT22;37695;52.960;6.188;2023-04-23T06:45:54;10.40;99.90
51615;DHT22;37695;52.960;6.188;2023-04-23T06:48:21;10.50;99.90
51615;DHT22;37695;52.960;6.188;2023-04-23T06:50:47;10.60;99.90
51615;DHT22;37695;52.960;6.188;2023-04-23T06:53:13;10.70;99.90
51615;DHT22;37695;52.960;6.188;2023-04-23T06:55:39;10.80;99.90
51615;DHT22;37695;52.960;6.188;2023-04-23T06:58:04;10.90;99.90
51615;DHT22;37695;52.960;6.188;2023-04-23T07:00:32;11.00;99.90
51615;DHT22;37695;52.960;6.188;2023-04-23T07:02:58;11.20;99.90
51615;DHT22;37695;52.960;6.188;2023-04-23T07:05:23;11.20;99.90
51615;DHT22;37695;52.960;6.188;2023-04-23T07:07:49;11.30;99.90
51615;DHT22;37695;52.960;6.188;2023-04-23T07:10:14;11.50;99.90
51615;DHT22;37695;52.960;6.188;2023-04-23T07:12:40;11.50;99.90
51615;DHT22;37695;52.960;6.188;2023-04-23T07:15:06;11.60;99.90
51615;DHT22;37695;52.960;6.188;2023-04-23T07:17:33;11.60;99.90
51615;DHT22;37695;52.960;6.188;2023-04-23T07:19:59;11.60;99.90
51615;DHT22;37695;52.960;6.188;2023-04-23T07:22:25;11.60;99.90
51615;DHT22;37695;52.960;6.188;2023-04-23T07:24:51;11.70;99.90
51615;DHT22;37695;52.960;6.188;2023-04-23T07:27:17;11.70;99.90
51615;DHT22;37695;52.960;6.188;2023-04-23T07:29:43;11.80;99.90
51615;DHT22;37695;52.960;6.188;2023-04-23T07:32:08;11.90;99.90
51615;DHT22;37695;52.960;6.188;2023-04-23T07:34:34;12.00;99.90
51615;DHT22;37695;52.960;6.188;2023-04-23T07:37:01;12.10;99.90
51615;DHT22;37695;52.960;6.188;2023-04-23T07:39:27;12.20;99.90
51615;DHT22;37695;52.960;6.188;2023-04-23T07:41:52;12.30;99.90
51615;DHT22;37695;52.960;6.188;2023-04-23T07:44:18;12.50;99.90
51615;DHT22;37695;52.960;6.188;2023-04-23T07:46:44;12.50;99.90
51615;DHT22;37695;52.960;6.188;2023-04-23T07:49:09;12.60;99.90
51615;DHT22;37695;52.960;6.188;2023-04-23T07:51:35;12.50;99.90
51615;DHT22;37695;52.960;6.188;2023-04-23T07:54:01;12.50;99.90
51615;DHT22;37695;52.960;6.188;2023-04-23T07:56:26;12.50;99.90
51615;DHT22;37695;52.960;6.188;2023-04-23T07:58:52;12.50;99.90
51615;DHT22;37695;52.960;6.188;2023-04-23T08:01:22;12.60;99.90
51615;DHT22;37695;52.960;6.188;2023-04-23T08:03:48;12.80;99.90
51615;DHT22;37695;52.960;6.188;2023-04-23T08:06:13;12.90;99.90
51615;DHT22;37695;52.960;6.188;2023-04-23T08:08:39;12.90;99.90
51615;DHT22;37695;52.960;6.188;2023-04-23T08:11:05;13.10;99.90
51615;DHT22;37695;52.960;6.188;2023-04-23T08:13:31;13.00;99.90
51615;DHT22;37695;52.960;6.188;2023-04-23T08:15:57;13.00;99.90
51615;DHT22;37695;52.960;6.188;2023-04-23T08:18:22;13.10;99.90
51615;DHT22;37695;52.960;6.188;2023-04-23T08:20:48;13.20;99.90
51615;DHT22;37695;52.960;6.188;2023-04-23T08:23:14;13.30;99.90
51615;DHT22;37695;52.960;6.188;2023-04-23T08:25:40;13.40;99.90
51615;DHT22;37695;52.960;6.188;2023-04-23T08:28:06;13.50;99.90
51615;DHT22;37695;52.960;6.188;2023-04-23T08:30:31;13.60;99.90
51615;DHT22;37695;52.960;6.188;2023-04-23T08:32:57;13.70;99.90
51615;DHT22;37695;52.960;6.188;2023-04-23T08:35:23;13.90;99.90
51615;DHT22;37695;52.960;6.188;2023-04-23T08:37:49;13.90;99.90
51615;DHT22;37695;52.960;6.188;2023-04-23T08:40:15;14.00;99.90
51615;DHT22;37695;52.960;6.188;2023-04-23T08:42:53;14.20;99.90
51615;DHT22;37695;52.960;6.188;2023-04-23T08:45:22;14.30;99.90
51615;DHT22;37695;52.960;6.188;2023-04-23T08:47:48;14.50;99.90
51615;DHT22;37695;52.960;6.188;2023-04-23T08:50:16;14.60;99.90
51615;DHT22;37695;52.960;6.188;2023-04-23T08:53:02;14.80;99.90
51615;DHT22;37695;52.960;6.188;2023-04-23T08:55:28;14.90;99.90
51615;DHT22;37695;52.960;6.188;2023-04-23T08:57:56;15.00;99.90
51615;DHT22;37695;52.960;6.188;2023-04-23T09:00:22;15.10;99.90
51615;DHT22;37695;52.960;6.188;2023-04-23T09:02:48;15.30;99.90
51615;DHT22;37695;52.960;6.188;2023-04-23T09:05:14;15.50;99.90
51615;DHT22;37695;52.960;6.188;2023-04-23T09:07:41;15.60;99.90
51615;DHT22;37695;52.960;6.188;2023-04-23T09:10:08;15.50;99.90
51615;DHT22;37695;52.960;6.188;2023-04-23T09:12:35;15.50;99.90
51615;DHT22;37695;52.960;6.188;2023-04-23T09:15:02;15.40;99.90
51615;DHT22;37695;52.960;6.188;2023-04-23T09:17:35;15.50;99.90
51615;DHT22;37695;52.960;6.188;2023-04-23T09:20:02;15.60;99.90
51615;DHT22;37695;52.960;6.188;2023-04-23T09:22:45;15.60;99.90
51615;DHT22;37695;52.960;6.188;2023-04-23T09:25:13;15.60;99.90
51615;DHT22;37695;52.960;6.188;2023-04-23T09:27:40;15.70;99.90
51615;DHT22;37695;52.960;6.188;2023-04-23T09:30:07;16.10;99.90
51615;DHT22;37695;52.960;6.188;2023-04-23T09:32:35;16.20;99.90
51615;DHT22;37695;52.960;6.188;2023-04-23T09:35:05;16.30;99.90
51615;DHT22;37695;52.960;6.188;2023-04-23T09:37:32;16.20;99.90
51615;DHT22;37695;52.960;6.188;2023-04-23T09:39:59;16.20;99.90
51615;DHT22;37695;52.960;6.188;2023-04-23T09:42:26;16.30;99.90
51615;DHT22;37695;52.960;6.188;2023-04-23T09:45:02;16.40;99.90
51615;DHT22;37695;52.960;6.188;2023-04-23T09:47:31;16.70;99.90
51615;DHT22;37695;52.960;6.188;2023-04-23T09:49:58;16.70;99.90
51615;DHT22;37695;52.960;6.188;2023-04-23T09:52:24;17.70;99.90
51615;DHT22;37695;52.960;6.188;2023-04-23T09:54:50;17.00;99.90
51615;DHT22;37695;52.960;6.188;2023-04-23T09:57:15;17.20;99.90
51615;DHT22;37695;52.960;6.188;2023-04-23T09:59:41;17.20;99.90
51615;DHT22;37695;52.960;6.188;2023-04-23T10:02:08;17.20;99.90
51615;DHT22;37695;52.960;6.188;2023-04-23T10:04:34;17.20;99.90
51615;DHT22;37695;52.960;6.188;2023-04-23T10:07:02;17.10;99.90
51615;DHT22;37695;52.960;6.188;2023-04-23T10:09:29;17.10;99.90
51615;DHT22;37695;52.960;6.188;2023-04-23T10:11:57;17.30;99.90
51615;DHT22;37695;52.960;6.188;2023-04-23T10:14:24;17.40;99.90
51615;DHT22;37695;52.960;6.188;2023-04-23T10:16:52;17.40;99.90
51615;DHT22;37695;52.960;6.188;2023-04-23T10:19:22;17.30;99.90
51615;DHT22;37695;52.960;6.188;2023-04-23T10:21:56;17.60;99.90
51615;DHT22;37695;52.960;6.188;2023-04-23T10:24:23;17.70;99.90
51615;DHT22;37695;52.960;6.188;2023-04-23T10:26:51;17.80;99.90
51615;DHT22;37695;52.960;6.188;2023-04-23T10:29:21;17.90;99.90
51615;DHT22;37695;52.960;6.188;2023-04-23T10:31:48;18.00;99.90
51615;DHT22;37695;52.960;6.188;2023-04-23T10:34:14;18.10;99.90
51615;DHT22;37695;52.960;6.188;2023-04-23T10:36:40;18.10;99.90
51615;DHT22;37695;52.960;6.188;2023-04-23T10:39:06;18.20;99.90
51615;DHT22;37695;52.960;6.188;2023-04-23T10:41:40;18.30;99.90
51615;DHT22;37695;52.960;6.188;2023-04-23T10:44:11;18.50;99.90
51615;DHT22;37695;52.960;6.188;2023-04-23T10:46:37;18.60;99.90
51615;DHT22;37695;52.960;6.188;2023-04-23T10:49:11;18.50;99.90
51615;DHT22;37695;52.960;6.188;2023-04-23T10:51:41;18.30;99.90
51615;DHT22;37695;52.960;6.188;2023-04-23T10:54:13;18.30;99.90
51615;DHT22;37695;52.960;6.188;2023-04-23T10:56:39;18.20;99.90
51615;DHT22;37695;52.960;6.188;2023-04-23T10:59:20;18.10;99.90
51615;DHT22;37695;52.960;6.188;2023-04-23T11:01:46;17.90;99.90
51615;DHT22;37695;52.960;6.188;2023-04-23T11:04:19;17.90;99.90
51615;DHT22;37695;52.960;6.188;2023-04-23T11:11:58;17.70;99.90
51615;DHT22;37695;52.960;6.188;2023-04-23T11:14:37;17.60;99.90
51615;DHT22;37695;52.960;6.188;2023-04-23T11:17:05;17.90;99.90
51615;DHT22;37695;52.960;6.188;2023-04-23T11:19:34;17.80;99.90
51615;DHT22;37695;52.960;6.188;2023-04-23T11:22:05;17.90;99.90
51615;DHT22;37695;52.960;6.188;2023-04-23T11:24:38;17.90;99.90
51615;DHT22;37695;52.960;6.188;2023-04-23T11:27:16;18.10;99.90
51615;DHT22;37695;52.960;6.188;2023-04-23T11:29:43;17.90;99.90
51615;DHT22;37695;52.960;6.188;2023-04-23T11:32:10;17.90;99.90
51615;DHT22;37695;52.960;6.188;2023-04-23T11:34:46;17.60;99.90
51615;DHT22;37695;52.960;6.188;2023-04-23T11:37:13;17.50;99.90
51615;DHT22;37695;52.960;6.188;2023-04-23T11:39:40;17.60;99.90
51615;DHT22;37695;52.960;6.188;2023-04-23T11:42:16;17.70;99.90
51615;DHT22;37695;52.960;6.188;2023-04-23T11:44:44;18.10;99.90
51615;DHT22;37695;52.960;6.188;2023-04-23T11:47:11;18.40;99.90
51615;DHT22;37695;52.960;6.188;2023-04-23T11:49:38;18.60;99.90
51615;DHT22;37695;52.960;6.188;2023-04-23T11:52:05;18.40;99.90
51615;DHT22;37695;52.960;6.188;2023-04-23T11:54:30;18.30;99.90
51615;DHT22;37695;52.960;6.188;2023-04-23T11:56:56;18.30;99.90
51615;DHT22;37695;52.960;6.188;2023-04-23T11:59:23;18.20;99.90
51615;DHT22;37695;52.960;6.188;2023-04-23T12:01:52;18.20;99.90
51615;DHT22;37695;52.960;6.188;2023-04-23T12:04:19;18.50;99.90
51615;DHT22;37695;52.960;6.188;2023-04-23T12:06:46;18.70;99.90
51615;DHT22;37695;52.960;6.188;2023-04-23T12:09:13;18.90;99.90
51615;DHT22;37695;52.960;6.188;2023-04-23T12:11:40;18.90;99.90
51615;DHT22;37695;52.960;6.188;2023-04-23T12:14:06;19.00;99.90
51615;DHT22;37695;52.960;6.188;2023-04-23T12:16:45;18.90;99.90
51615;DHT22;37695;52.960;6.188;2023-04-23T12:19:28;18.80;98.10
51615;DHT22;37695;52.960;6.188;2023-04-23T12:21:59;18.70;98.60
51615;DHT22;37695;52.960;6.188;2023-04-23T12:24:29;18.80;99.90
51615;DHT22;37695;52.960;6.188;2023-04-23T12:26:59;18.70;99.80
51615;DHT22;37695;52.960;6.188;2023-04-23T12:29:29;18.60;99.60
51615;DHT22;37695;52.960;6.188;2023-04-23T12:31:57;18.60;99.70
51615;DHT22;37695;52.960;6.188;2023-04-23T12:34:25;18.60;99.70
51615;DHT22;37695;52.960;6.188;2023-04-23T12:36:53;18.70;99.90
51615;DHT22;37695;52.960;6.188;2023-04-23T12:39:21;18.60;99.90
51615;DHT22;37695;52.960;6.188;2023-04-23T12:41:49;18.70;99.60
51615;DHT22;37695;52.960;6.188;2023-04-23T12:44:16;18.50;99.30
51615;DHT22;37695;52.960;6.188;2023-04-23T12:46:41;18.50;99.80
51615;DHT22;37695;52.960;6.188;2023-04-23T12:49:07;18.50;99.80
51615;DHT22;37695;52.960;6.188;2023-04-23T12:51:32;18.60;99.90
51615;DHT22;37695;52.960;6.188;2023-04-23T12:53:58;18.70;99.70
51615;DHT22;37695;52.960;6.188;2023-04-23T12:56:24;18.90;99.70
51615;DHT22;37695;52.960;6.188;2023-04-23T12:58:50;19.00;99.50
51615;DHT22;37695;52.960;6.188;2023-04-23T13:01:15;19.20;99.00
51615;DHT22;37695;52.960;6.188;2023-04-23T13:03:41;19.40;99.00
51615;DHT22;37695;52.960;6.188;2023-04-23T13:06:07;19.50;98.80
51615;DHT22;37695;52.960;6.188;2023-04-23T13:08:32;19.60;98.90
51615;DHT22;37695;52.960;6.188;2023-04-23T13:10:58;19.80;98.90
51615;DHT22;37695;52.960;6.188;2023-04-23T13:13:25;19.90;99.00
51615;DHT22;37695;52.960;6.188;2023-04-23T13:15:51;19.80;98.30
51615;DHT22;37695;52.960;6.188;2023-04-23T13:18:17;19.70;97.90
51615;DHT22;37695;52.960;6.188;2023-04-23T13:20:43;19.70;97.80
51615;DHT22;37695;52.960;6.188;2023-04-23T13:23:09;19.60;97.80
51615;DHT22;37695;52.960;6.188;2023-04-23T13:25:35;19.60;98.30
51615;DHT22;37695;52.960;6.188;2023-04-23T13:28:01;19.50;98.00
51615;DHT22;37695;52.960;6.188;2023-04-23T13:30:26;19.40;97.90
51615;DHT22;37695;52.960;6.188;2023-04-23T13:32:52;19.50;98.20
51615;DHT22;37695;52.960;6.188;2023-04-23T13:35:18;19.40;97.90
51615;DHT22;37695;52.960;6.188;2023-04-23T13:37:43;19.60;97.90
51615;DHT22;37695;52.960;6.188;2023-04-23T13:40:09;19.70;98.10
51615;DHT22;37695;52.960;6.188;2023-04-23T13:42:35;19.90;98.00
51615;DHT22;37695;52.960;6.188;2023-04-23T13:45:00;20.00;97.80
51615;DHT22;37695;52.960;6.188;2023-04-23T13:47:29;20.00;97.80
51615;DHT22;37695;52.960;6.188;2023-04-23T13:49:58;20.20;97.40
51615;DHT22;37695;52.960;6.188;2023-04-23T13:52:23;20.20;97.30
51615;DHT22;37695;52.960;6.188;2023-04-23T13:54:49;20.20;96.80
51615;DHT22;37695;52.960;6.188;2023-04-23T13:57:17;20.20;96.60
51615;DHT22;37695;52.960;6.188;2023-04-23T13:59:42;20.40;96.80
51615;DHT22;37695;52.960;6.188;2023-04-23T14:02:08;20.50;97.30
51615;DHT22;37695;52.960;6.188;2023-04-23T14:04:33;20.40;97.10
51615;DHT22;37695;52.960;6.188;2023-04-23T14:06:59;20.50;96.80
51615;DHT22;37695;52.960;6.188;2023-04-23T14:09:24;20.70;96.80
51615;DHT22;37695;52.960;6.188;2023-04-23T14:11:50;20.50;96.50
51615;DHT22;37695;52.960;6.188;2023-04-23T14:14:16;20.30;96.30
51615;DHT22;37695;52.960;6.188;2023-04-23T14:16:42;20.20;96.70
51615;DHT22;37695;52.960;6.188;2023-04-23T14:19:07;20.10;96.90
51615;DHT22;37695;52.960;6.188;2023-04-23T14:21:33;20.10;97.10
51615;DHT22;37695;52.960;6.188;2023-04-23T14:24:21;20.00;97.30
51615;DHT22;37695;52.960;6.188;2023-04-23T14:26:48;19.90;96.00
51615;DHT22;37695;52.960;6.188;2023-04-23T14:29:44;19.70;97.00
51615;DHT22;37695;52.960;6.188;2023-04-23T14:32:10;19.50;97.00
51615;DHT22;37695;52.960;6.188;2023-04-23T14:34:37;19.30;97.50
51615;DHT22;37695;52.960;6.188;2023-04-23T14:37:03;19.20;97.80
51615;DHT22;37695;52.960;6.188;2023-04-23T14:39:28;19.20;97.60
51615;DHT22;37695;52.960;6.188;2023-04-23T14:41:54;19.10;97.70
51615;DHT22;37695;52.960;6.188;2023-04-23T14:44:20;19.10;97.90
51615;DHT22;37695;52.960;6.188;2023-04-23T14:46:51;19.00;98.20
51615;DHT22;37695;52.960;6.188;2023-04-23T14:49:17;18.90;98.00
51615;DHT22;37695;52.960;6.188;2023-04-23T14:51:43;18.80;98.00
51615;DHT22;37695;52.960;6.188;2023-04-23T14:54:09;18.70;98.20
51615;DHT22;37695;52.960;6.188;2023-04-23T14:56:34;18.70;98.40
51615;DHT22;37695;52.960;6.188;2023-04-23T14:59:01;18.60;98.10
51615;DHT22;37695;52.960;6.188;2023-04-23T15:01:28;18.70;98.30
51615;DHT22;37695;52.960;6.188;2023-04-23T15:03:53;18.70;98.50
51615;DHT22;37695;52.960;6.188;2023-04-23T15:06:19;18.80;98.60
51615;DHT22;37695;52.960;6.188;2023-04-23T15:08:45;18.80;98.90
51615;DHT22;37695;52.960;6.188;2023-04-23T15:11:11;18.80;98.80
51615;DHT22;37695;52.960;6.188;2023-04-23T15:16:23;18.80;98.90
51615;DHT22;37695;52.960;6.188;2023-04-23T15:18:49;18.80;98.80
51615;DHT22;37695;52.960;6.188;2023-04-23T15:21:15;18.70;98.80
51615;DHT22;37695;52.960;6.188;2023-04-23T15:23:40;18.70;99.00
51615;DHT22;37695;52.960;6.188;2023-04-23T15:26:07;18.60;99.00
51615;DHT22;37695;52.960;6.188;2023-04-23T15:28:32;18.60;99.10
51615;DHT22;37695;52.960;6.188;2023-04-23T15:30:58;18.40;99.30
51615;DHT22;37695;52.960;6.188;2023-04-23T15:33:24;18.30;99.20
51615;DHT22;37695;52.960;6.188;2023-04-23T15:35:49;18.30;99.20
51615;DHT22;37695;52.960;6.188;2023-04-23T15:38:16;18.30;99.40
51615;DHT22;37695;52.960;6.188;2023-04-23T15:40:42;18.10;99.30
51615;DHT22;37695;52.960;6.188;2023-04-23T15:43:11;18.10;99.60